sensor_id;sensor_type;location;lat;lon;timestamp;temperature;humidity
31263;DHT22;17892;52.080;9.006;2023-12-29T00:01:57;11.70;99.90
31263;DHT22;17892;52.080;9.006;2023-12-29T00:04:27;11.70;99.90
31263;DHT22;17892;52.080;9.006;2023-12-29T00:06:53;11.70;99.90
31263;DHT22;17892;52.080;9.006;2023-12-29T00:09:19;11.80;99.90
31263;DHT22;17892;52.080;9.006;2023-12-29T00:11:47;11.80;99.90
31263;DHT22;17892;52.080;9.006;2023-12-29T00:14:14;11.80;99.90
31263;DHT22;17892;52.080;9.006;2023-12-29T00:16:40;11.80;99.90
31263;DHT22;17892;52.080;9.006;2023-12-29T00:19:05;11.80;99.90
31263;DHT22;17892;52.080;9.006;2023-12-29T00:21:31;11.80;99.90
31263;DHT22;17892;52.080;9.006;2023-12-29T00:23:57;11.80;99.90
31263;DHT22;17892;52.080;9.006;2023-12-29T00:26:23;11.80;99.90
31263;DHT22;17892;52.080;9.006;2023-12-29T00:28:48;11.80;99.90
31263;DHT22;17892;52.080;9.006;2023-12-29T00:31:15;11.80;99.90
31263;DHT22;17892;52.080;9.006;2023-12-29T00:33:41;11.80;99.90
31263;DHT22;17892;52.080;9.006;2023-12-29T00:36:08;11.80;99.90
31263;DHT22;17892;52.080;9.006;2023-12-29T00:38:34;11.80;99.90
31263;DHT22;17892;52.080;9.006;2023-12-29T00:41:00;11.80;99.90
31263;DHT22;17892;52.080;9.006;2023-12-29T00:43:25;11.90;99.90
31263;DHT22;17892;52.080;9.006;2023-12-29T00:45:51;12.00;99.90
31263;DHT22;17892;52.080;9.006;2023-12-29T00:48:16;11.90;99.90
31263;DHT22;17892;52.080;9.006;2023-12-29T00:50:42;11.90;99.90
31263;DHT22;17892;52.080;9.006;2023-12-29T00:53:08;11.90;99.90
31263;DHT22;17892;52.080;9.006;2023-12-29T00:55:34;11.90;99.90
31263;DHT22;17892;52.080;9.006;2023-12-29T00:57:59;11.90;99.90
31263;DHT22;17892;52.080;9.006;2023-12-29T01:00:25;12.00;99.90
31263;DHT22;17892;52.080;9.006;2023-12-29T01:02:50;12.00;99.90
31263;DHT22;17892;52.080;9.006;2023-12-29T01:05:17;12.00;99.90
31263;DHT22;17892;52.080;9.006;2023-12-29T01:07:43;12.00;99.90
31263;DHT22;17892;52.080;9.006;2023-12-29T01:10:09;11.90;99.90
31263;DHT22;17892;52.080;9.006;2023-12-29T01:12:34;11.90;99.90
31263;DHT22;17892;52.080;9.006;2023-12-29T01:15:00;11.90;99.90
31263;DHT22;17892;52.080;9.006;2023-12-29T01:17:26;11.80;99.90
31263;DHT22;17892;52.080;9.006;2023-12-29T01:19:53;11.80;99.90
31263;DHT22;17892;52.080;9.006;2023-12-29T01:22:19;11.70;99.90
31263;DHT22;17892;52.080;9.006;2023-12-29T01:24:45;11.70;99.90
31263;DHT22;17892;52.080;9.006;2023-12-29T01:27:11;11.60;99.90
31263;DHT22;17892;52.080;9.006;2023-12-29T01:29:37;11.50;99.90
31263;DHT22;17892;52.080;9.006;2023-12-29T01:32:02;11.50;99.90
31263;DHT22;17892;52.080;9.006;2023-12-29T01:34:29;11.50;99.90
31263;DHT22;17892;52.080;9.006;2023-12-29T01:36:58;11.50;99.90
31263;DHT22;17892;52.080;9.006;2023-12-29T01:39:24;11.50;99.90
31263;DHT22;17892;52.080;9.006;2023-12-29T01:41:50;11.50;99.90
31263;DHT22;17892;52.080;9.006;2023-12-29T01:44:20;11.50;99.90
31263;DHT22;17892;52.080;9.006;2023-12-29T01:46:51;11.50;99.90
31263;DHT22;17892;52.080;9.006;2023-12-29T01:49:20;11.50;99.90
31263;DHT22;17892;52.080;9.006;2023-12-29T01:51:53;11.50;99.90
31263;DHT22;17892;52.080;9.006;2023-12-29T01:54:25;11.40;99.90
31263;DHT22;17892;52.080;9.006;2023-12-29T01:56:54;11.30;99.90
31263;DHT22;17892;52.080;9.006;2023-12-29T01:59:22;11.20;99.90
31263;DHT22;17892;52.080;9.006;2023-12-29T02:01:50;11.20;99.90
31263;DHT22;17892;52.080;9.006;2023-12-29T02:04:17;11.20;99.90
31263;DHT22;17892;52.080;9.006;2023-12-29T02:06:43;11.20;99.90
31263;DHT22;17892;52.080;9.006;2023-12-29T02:09:09;11.20;99.90
31263;DHT22;17892;52.080;9.006;2023-12-29T02:11:35;11.20;99.90
31263;DHT22;17892;52.080;9.006;2023-12-29T02:14:01;11.20;99.90
31263;DHT22;17892;52.080;9.006;2023-12-29T02:17:05;11.30;99.90
31263;DHT22;17892;52.080;9.006;2023-12-29T02:19:42;11.30;99.90
31263;DHT22;17892;52.080;9.006;2023-12-29T02:22:10;11.40;99.90
31263;DHT22;17892;52.080;9.006;2023-12-29T02:24:37;11.50;99.90
31263;DHT22;17892;52.080;9.006;2023-12-29T02:27:11;11.50;99.90
31263;DHT22;17892;52.080;9.006;2023-12-29T02:32:49;11.60;99.90
31263;DHT22;17892;52.080;9.006;2023-12-29T02:35:23;11.70;99.90
31263;DHT22;17892;52.080;9.006;2023-12-29T02:37:51;11.70;99.90
31263;DHT22;17892;52.080;9.006;2023-12-29T02:40:17;11.70;99.90
31263;DHT22;17892;52.080;9.006;2023-12-29T02:42:46;11.70;99.90
31263;DHT22;17892;52.080;9.006;2023-12-29T02:45:15;11.70;99.90
31263;DHT22;17892;52.080;9.006;2023-12-29T02:47:41;11.80;99.90
31263;DHT22;17892;52.080;9.006;2023-12-29T02:50:08;11.80;99.90
31263;DHT22;17892;52.080;9.006;2023-12-29T02:52:36;11.80;99.90
31263;DHT22;17892;52.080;9.006;2023-12-29T02:55:02;12.00;99.90
31263;DHT22;17892;52.080;9.006;2023-12-29T02:57:28;11.90;99.90
31263;DHT22;17892;52.080;9.006;2023-12-29T02:59:55;11.90;99.90
31263;DHT22;17892;52.080;9.006;2023-12-29T03:02:21;12.00;99.90
31263;DHT22;17892;52.080;9.006;2023-12-29T03:04:48;11.90;99.90
31263;DHT22;17892;52.080;9.006;2023-12-29T03:07:13;11.90;99.90
31263;DHT22;17892;52.080;9.006;2023-12-29T03:09:39;11.80;99.90
31263;DHT22;17892;52.080;9.006;2023-12-29T03:12:05;11.70;99.90
31263;DHT22;17892;52.080;9.006;2023-12-29T03:14:31;11.60;99.90
31263;DHT22;17892;52.080;9.006;2023-12-29T03:16:57;11.40;99.90
31263;DHT22;17892;52.080;9.006;2023-12-29T03:19:22;11.30;99.90
31263;DHT22;17892;52.080;9.006;2023-12-29T03:21:48;11.20;99.90
31263;DHT22;17892;52.080;9.006;2023-12-29T03:24:14;11.10;99.90
31263;DHT22;17892;52.080;9.006;2023-12-29T03:26:39;10.90;99.90
31263;DHT22;17892;52.080;9.006;2023-12-29T03:29:06;10.90;99.90
31263;DHT22;17892;52.080;9.006;2023-12-29T03:31:31;10.80;99.90
31263;DHT22;17892;52.080;9.006;2023-12-29T03:33:57;10.70;99.90
31263;DHT22;17892;52.080;9.006;2023-12-29T03:36:23;10.60;99.90
31263;DHT22;17892;52.080;9.006;2023-12-29T03:38:49;10.50;99.90
31263;DHT22;17892;52.080;9.006;2023-12-29T03:41:14;10.50;99.90
31263;DHT22;17892;52.080;9.006;2023-12-29T03:43:40;10.50;99.90
31263;DHT22;17892;52.080;9.006;2023-12-29T03:46:16;10.40;99.90
31263;DHT22;17892;52.080;9.006;2023-12-29T03:48:46;10.40;99.90
31263;DHT22;17892;52.080;9.006;2023-12-29T03:51:13;10.30;99.90
31263;DHT22;17892;52.080;9.006;2023-12-29T03:53:38;10.30;99.90
31263;DHT22;17892;52.080;9.006;2023-12-29T03:56:08;10.30;99.90
31263;DHT22;17892;52.080;9.006;2023-12-29T03:58:35;10.30;99.90
31263;DHT22;17892;52.080;9.006;2023-12-29T04:01:01;10.30;99.90
31263;DHT22;17892;52.080;9.006;2023-12-29T04:03:27;10.30;99.90
31263;DHT22;17892;52.080;9.006;2023-12-29T04:05:53;10.30;99.90
31263;DHT22;17892;52.080;9.006;2023-12-29T04:08:19;10.30;99.90
31263;DHT22;17892;52.080;9.006;2023-12-29T04:10:44;10.30;99.90
31263;DHT22;17892;52.080;9.006;2023-12-29T04:13:10;10.30;99.90
31263;DHT22;17892;52.080;9.006;2023-12-29T04:15:36;10.30;99.90
31263;DHT22;17892;52.080;9.006;2023-12-29T04:18:01;10.30;99.90
31263;DHT22;17892;52.080;9.006;2023-12-29T04:20:27;10.30;99.90
31263;DHT22;17892;52.080;9.006;2023-12-29T04:22:54;10.40;99.90
31263;DHT22;17892;52.080;9.006;2023-12-29T04:25:20;10.30;99.90
31263;DHT22;17892;52.080;9.006;2023-12-29T04:27:46;10.30;99.90
31263;DHT22;17892;52.080;9.006;2023-12-29T04:30:11;10.30;99.90
31263;DHT22;17892;52.080;9.006;2023-12-29T04:32:37;10.40;99.90
31263;DHT22;17892;52.080;9.006;2023-12-29T04:35:03;10.30;99.90
31263;DHT22;17892;52.080;9.006;2023-12-29T04:37:29;10.40;99.90
31263;DHT22;17892;52.080;9.006;2023-12-29T04:39:55;10.30;99.90
31263;DHT22;17892;52.080;9.006;2023-12-29T04:42:20;10.30;99.90
31263;DHT22;17892;52.080;9.006;2023-12-29T04:44:46;10.30;99.90
31263;DHT22;17892;52.080;9.006;2023-12-29T04:47:12;10.30;99.90
31263;DHT22;17892;52.080;9.006;2023-12-29T04:49:37;10.30;99.90
31263;DHT22;17892;52.080;9.006;2023-12-29T04:52:04;10.30;99.90
31263;DHT22;17892;52.080;9.006;2023-12-29T04:54:30;10.30;99.90
31263;DHT22;17892;52.080;9.006;2023-12-29T04:56:55;10.30;99.90
31263;DHT22;17892;52.080;9.006;2023-12-29T04:59:21;10.30;99.90
31263;DHT22;17892;52.080;9.006;2023-12-29T05:01:46;10.30;99.90
31263;DHT22;17892;52.080;9.006;2023-12-29T05:04:12;10.20;99.90
31263;DHT22;17892;52.080;9.006;2023-12-29T05:06:40;10.20;99.90
31263;DHT22;17892;52.080;9.006;2023-12-29T05:09:06;10.20;99.90
31263;DHT22;17892;52.080;9.006;2023-12-29T05:11:31;10.20;99.90
31263;DHT22;17892;52.080;9.006;2023-12-29T05:13:57;10.20;99.90
31263;DHT22;17892;52.080;9.006;2023-12-29T05:16:23;10.20;99.90
31263;DHT22;17892;52.080;9.006;2023-12-29T05:18:49;10.30;99.90
31263;DHT22;17892;52.080;9.006;2023-12-29T05:21:18;10.30;99.90
31263;DHT22;17892;52.080;9.006;2023-12-29T05:23:45;10.30;99.90
31263;DHT22;17892;52.080;9.006;2023-12-29T05:26:11;10.40;99.90
31263;DHT22;17892;52.080;9.006;2023-12-29T05:28:37;10.30;99.90
31263;DHT22;17892;52.080;9.006;2023-12-29T05:31:03;10.40;99.90
31263;DHT22;17892;52.080;9.006;2023-12-29T05:33:30;10.40;99.90
31263;DHT22;17892;52.080;9.006;2023-12-29T05:35:56;10.40;99.90
31263;DHT22;17892;52.080;9.006;2023-12-29T05:38:21;10.50;99.90
31263;DHT22;17892;52.080;9.006;2023-12-29T05:40:47;10.50;99.90
31263;DHT22;17892;52.080;9.006;2023-12-29T05:43:14;10.50;99.90
31263;DHT22;17892;52.080;9.006;2023-12-29T05:45:40;10.50;99.90
31263;DHT22;17892;52.080;9.006;2023-12-29T05:48:06;10.50;99.90
31263;DHT22;17892;52.080;9.006;2023-12-29T05:50:32;10.60;99.90
31263;DHT22;17892;52.080;9.006;2023-12-29T05:52:58;10.60;99.90
31263;DHT22;17892;52.080;9.006;2023-12-29T05:55:23;10.60;99.90
31263;DHT22;17892;52.080;9.006;2023-12-29T05:57:49;10.60;99.90
31263;DHT22;17892;52.080;9.006;2023-12-29T06:00:15;10.70;99.90
31263;DHT22;17892;52.080;9.006;2023-12-29T06:02:41;10.70;99.90
31263;DHT22;17892;52.080;9.006;2023-12-29T06:05:09;10.70;99.90
31263;DHT22;17892;52.080;9.006;2023-12-29T06:07:36;10.70;99.90
31263;DHT22;17892;52.080;9.006;2023-12-29T06:10:02;10.70;99.90
31263;DHT22;17892;52.080;9.006;2023-12-29T06:12:27;10.70;99.90
31263;DHT22;17892;52.080;9.006;2023-12-29T06:14:53;10.70;99.90
31263;DHT22;17892;52.080;9.006;2023-12-29T06:17:19;10.80;99.90
31263;DHT22;17892;52.080;9.006;2023-12-29T06:19:45;10.80;99.90
31263;DHT22;17892;52.080;9.006;2023-12-29T06:22:10;10.80;99.90
31263;DHT22;17892;52.080;9.006;2023-12-29T06:24:40;10.80;99.90
31263;DHT22;17892;52.080;9.006;2023-12-29T06:27:09;10.90;99.90
31263;DHT22;17892;52.080;9.006;2023-12-29T06:29:35;10.90;99.90
31263;DHT22;17892;52.080;9.006;2023-12-29T06:32:02;10.90;99.90
31263;DHT22;17892;52.080;9.006;2023-12-29T06:34:28;10.90;99.90
31263;DHT22;17892;52.080;9.006;2023-12-29T06:36:54;11.00;99.90
31263;DHT22;17892;52.080;9.006;2023-12-29T06:39:20;11.00;99.90
31263;DHT22;17892;52.080;9.006;2023-12-29T06:41:45;11.00;99.90
31263;DHT22;17892;52.080;9.006;2023-12-29T06:44:11;11.00;99.90
31263;DHT22;17892;52.080;9.006;2023-12-29T06:46:37;11.00;99.90
31263;DHT22;17892;52.080;9.006;2023-12-29T06:49:03;11.00;99.90
31263;DHT22;17892;52.080;9.006;2023-12-29T06:51:29;11.00;99.90
31263;DHT22;17892;52.080;9.006;2023-12-29T06:53:54;11.00;99.90
31263;DHT22;17892;52.080;9.006;2023-12-29T06:56:20;11.10;99.90
31263;DHT22;17892;52.080;9.006;2023-12-29T06:58:46;11.10;99.90
31263;DHT22;17892;52.080;9.006;2023-12-29T07:01:12;11.10;99.90
31263;DHT22;17892;52.080;9.006;2023-12-29T07:03:38;11.10;99.90
31263;DHT22;17892;52.080;9.006;2023-12-29T07:06:04;11.10;99.90
31263;DHT22;17892;52.080;9.006;2023-12-29T07:08:30;11.20;99.90
31263;DHT22;17892;52.080;9.006;2023-12-29T07:10:55;11.20;99.90
31263;DHT22;17892;52.080;9.006;2023-12-29T07:13:21;11.20;99.90
31263;DHT22;17892;52.080;9.006;2023-12-29T07:15:47;11.20;99.90
31263;DHT22;17892;52.080;9.006;2023-12-29T07:18:14;11.20;99.90
31263;DHT22;17892;52.080;9.006;2023-12-29T07:20:40;11.30;99.90
31263;DHT22;17892;52.080;9.006;2023-12-29T07:23:06;11.30;99.90
31263;DHT22;17892;52.080;9.006;2023-12-29T07:25:31;11.30;99.90
31263;DHT22;17892;52.080;9.006;2023-12-29T07:27:57;11.30;99.90
31263;DHT22;17892;52.080;9.006;2023-12-29T07:30:23;11.30;99.90
31263;DHT22;17892;52.080;9.006;2023-12-29T07:32:48;11.40;99.90
31263;DHT22;17892;52.080;9.006;2023-12-29T07:35:14;11.40;99.90
31263;DHT22;17892;52.080;9.006;2023-12-29T07:37:43;11.40;99.90
31263;DHT22;17892;52.080;9.006;2023-12-29T07:40:12;11.40;99.90
31263;DHT22;17892;52.080;9.006;2023-12-29T07:42:42;11.50;99.90
31263;DHT22;17892;52.080;9.006;2023-12-29T07:45:12;11.60;99.90
31263;DHT22;17892;52.080;9.006;2023-12-29T07:47:37;11.50;99.90
31263;DHT22;17892;52.080;9.006;2023-12-29T07:50:04;11.50;99.90
31263;DHT22;17892;52.080;9.006;2023-12-29T07:52:31;11.60;99.90
31263;DHT22;17892;52.080;9.006;2023-12-29T07:54:56;11.50;99.90
31263;DHT22;17892;52.080;9.006;2023-12-29T07:57:22;11.50;99.90
31263;DHT22;17892;52.080;9.006;2023-12-29T07:59:48;11.60;99.90
31263;DHT22;17892;52.080;9.006;2023-12-29T08:02:13;11.70;99.90
31263;DHT22;17892;52.080;9.006;2023-12-29T08:04:39;11.60;99.90
31263;DHT22;17892;52.080;9.006;2023-12-29T08:07:05;11.60;99.90
31263;DHT22;17892;52.080;9.006;2023-12-29T08:09:30;11.60;99.90
31263;DHT22;17892;52.080;9.006;2023-12-29T08:11:56;11.60;99.90
31263;DHT22;17892;52.080;9.006;2023-12-29T08:14:22;11.70;99.90
31263;DHT22;17892;52.080;9.006;2023-12-29T08:16:47;11.70;99.90
31263;DHT22;17892;52.080;9.006;2023-12-29T08:19:13;11.70;99.90
31263;DHT22;17892;52.080;9.006;2023-12-29T08:21:40;11.70;99.90
31263;DHT22;17892;52.080;9.006;2023-12-29T08:24:06;11.70;99.90
31263;DHT22;17892;52.080;9.006;2023-12-29T08:26:32;11.70;99.90
31263;DHT22;17892;52.080;9.006;2023-12-29T08:28:58;11.80;99.90
31263;DHT22;17892;52.080;9.006;2023-12-29T08:31:23;11.80;99.90
31263;DHT22;17892;52.080;9.006;2023-12-29T08:33:49;11.80;99.90
31263;DHT22;17892;52.080;9.006;2023-12-29T08:36:18;11.80;99.90
31263;DHT22;17892;52.080;9.006;2023-12-29T08:38:44;11.80;99.90
31263;DHT22;17892;52.080;9.006;2023-12-29T08:41:13;11.80;99.90
31263;DHT22;17892;52.080;9.006;2023-12-29T08:43:39;11.80;99.90
31263;DHT22;17892;52.080;9.006;2023-12-29T08:46:04;11.80;99.90
31263;DHT22;17892;52.080;9.006;2023-12-29T08:48:30;11.80;99.90
31263;DHT22;17892;52.080;9.006;2023-12-29T08:50:56;11.80;99.90
31263;DHT22;17892;52.080;9.006;2023-12-29T08:53:21;11.90;99.90
31263;DHT22;17892;52.080;9.006;2023-12-29T08:55:47;11.80;99.90
31263;DHT22;17892;52.080;9.006;2023-12-29T08:58:13;11.90;99.90
31263;DHT22;17892;52.080;9.006;2023-12-29T09:00:38;11.80;99.90
31263;DHT22;17892;52.080;9.006;2023-12-29T09:03:04;11.70;99.90
31263;DHT22;17892;52.080;9.006;2023-12-29T09:05:30;11.60;99.90
31263;DHT22;17892;52.080;9.006;2023-12-29T09:07:55;11.50;99.90
31263;DHT22;17892;52.080;9.006;2023-12-29T09:10:21;11.40;99.90
31263;DHT22;17892;52.080;9.006;2023-12-29T09:12:48;11.30;99.90
31263;DHT22;17892;52.080;9.006;2023-12-29T09:15:14;11.20;99.90
31263;DHT22;17892;52.080;9.006;2023-12-29T09:17:40;11.00;99.90
31263;DHT22;17892;52.080;9.006;2023-12-29T09:20:06;11.00;99.90
31263;DHT22;17892;52.080;9.006;2023-12-29T09:22:33;10.80;99.90
31263;DHT22;17892;52.080;9.006;2023-12-29T09:24:59;10.70;99.90
31263;DHT22;17892;52.080;9.006;2023-12-29T09:27:25;10.60;99.90
31263;DHT22;17892;52.080;9.006;2023-12-29T09:29:50;10.50;99.90
31263;DHT22;17892;52.080;9.006;2023-12-29T09:32:16;10.40;99.90
31263;DHT22;17892;52.080;9.006;2023-12-29T09:34:42;10.40;99.90
31263;DHT22;17892;52.080;9.006;2023-12-29T09:37:07;10.40;99.90
31263;DHT22;17892;52.080;9.006;2023-12-29T09:39:33;10.30;99.90
31263;DHT22;17892;52.080;9.006;2023-12-29T09:41:59;10.40;99.90
31263;DHT22;17892;52.080;9.006;2023-12-29T09:44:27;10.30;99.90
31263;DHT22;17892;52.080;9.006;2023-12-29T09:46:55;10.30;99.90
31263;DHT22;17892;52.080;9.006;2023-12-29T09:49:27;10.30;99.90
31263;DHT22;17892;52.080;9.006;2023-12-29T09:51:57;10.30;99.90
31263;DHT22;17892;52.080;9.006;2023-12-29T09:54:25;10.30;99.90
31263;DHT22;17892;52.080;9.006;2023-12-29T09:56:51;10.30;99.90
31263;DHT22;17892;52.080;9.006;2023-12-29T09:59:16;10.30;99.90
31263;DHT22;17892;52.080;9.006;2023-12-29T10:01:44;10.20;99.90
31263;DHT22;17892;52.080;9.006;2023-12-29T10:04:11;10.30;99.90
31263;DHT22;17892;52.080;9.006;2023-12-29T10:06:39;10.30;99.90
31263;DHT22;17892;52.080;9.006;2023-12-29T10:09:10;10.30;99.90
31263;DHT22;17892;52.080;9.006;2023-12-29T10:11:38;10.30;99.90
31263;DHT22;17892;52.080;9.006;2023-12-29T10:14:22;10.30;99.90
31263;DHT22;17892;52.080;9.006;2023-12-29T10:16:59;10.30;99.90
31263;DHT22;17892;52.080;9.006;2023-12-29T10:19:39;10.30;99.90
31263;DHT22;17892;52.080;9.006;2023-12-29T10:22:26;10.30;99.90
31263;DHT22;17892;52.080;9.006;2023-12-29T10:24:59;10.30;99.90
31263;DHT22;17892;52.080;9.006;2023-12-29T10:27:25;10.30;99.90
31263;DHT22;17892;52.080;9.006;2023-12-29T10:29:52;10.30;99.90
31263;DHT22;17892;52.080;9.006;2023-12-29T10:32:18;10.30;99.90
31263;DHT22;17892;52.080;9.006;2023-12-29T10:34:43;10.30;99.90
31263;DHT22;17892;52.080;9.006;2023-12-29T10:37:09;10.30;99.90
31263;DHT22;17892;52.080;9.006;2023-12-29T10:39:39;10.30;99.90
31263;DHT22;17892;52.080;9.006;2023-12-29T10:42:20;10.30;99.90
31263;DHT22;17892;52.080;9.006;2023-12-29T10:44:45;10.40;99.90
31263;DHT22;17892;52.080;9.006;2023-12-29T10:47:12;10.40;99.90
31263;DHT22;17892;52.080;9.006;2023-12-29T10:49:41;10.50;99.90
31263;DHT22;17892;52.080;9.006;2023-12-29T10:52:14;10.50;99.90
31263;DHT22;17892;52.080;9.006;2023-12-29T10:54:43;10.60;99.90
31263;DHT22;17892;52.080;9.006;2023-12-29T10:57:13;10.60;99.90
31263;DHT22;17892;52.080;9.006;2023-12-29T10:59:39;10.70;99.90
31263;DHT22;17892;52.080;9.006;2023-12-29T11:02:05;10.80;99.90
31263;DHT22;17892;52.080;9.006;2023-12-29T11:04:30;10.80;99.90
31263;DHT22;17892;52.080;9.006;2023-12-29T11:06:56;10.80;99.90
31263;DHT22;17892;52.080;9.006;2023-12-29T11:09:29;10.90;99.90
31263;DHT22;17892;52.080;9.006;2023-12-29T11:12:02;10.90;99.90
31263;DHT22;17892;52.080;9.006;2023-12-29T11:14:30;11.00;99.90
31263;DHT22;17892;52.080;9.006;2023-12-29T11:16:56;11.00;99.90
31263;DHT22;17892;52.080;9.006;2023-12-29T11:19:23;11.10;99.90
31263;DHT22;17892;52.080;9.006;2023-12-29T11:21:54;11.10;99.90
31263;DHT22;17892;52.080;9.006;2023-12-29T11:24:21;11.30;99.90
31263;DHT22;17892;52.080;9.006;2023-12-29T11:26:49;11.20;99.90
31263;DHT22;17892;52.080;9.006;2023-12-29T11:29:16;11.20;99.90
31263;DHT22;17892;52.080;9.006;2023-12-29T11:31:43;11.30;99.90
31263;DHT22;17892;52.080;9.006;2023-12-29T11:34:13;11.30;99.90
31263;DHT22;17892;52.080;9.006;2023-12-29T11:36:46;11.30;99.90
31263;DHT22;17892;52.080;9.006;2023-12-29T11:42:14;11.30;99.90
31263;DHT22;17892;52.080;9.006;2023-12-29T11:44:43;11.40;99.90
31263;DHT22;17892;52.080;9.006;2023-12-29T11:47:34;11.40;99.90
31263;DHT22;17892;52.080;9.006;2023-12-29T11:50:04;11.40;99.90
31263;DHT22;17892;52.080;9.006;2023-12-29T11:52:38;11.40;99.90
31263;DHT22;17892;52.080;9.006;2023-12-29T11:55:12;11.40;99.90
31263;DHT22;17892;52.080;9.006;2023-12-29T11:57:40;11.40;99.90
31263;DHT22;17892;52.080;9.006;2023-12-29T12:00:07;11.40;99.90
31263;DHT22;17892;52.080;9.006;2023-12-29T12:02:33;11.40;99.90
31263;DHT22;17892;52.080;9.006;2023-12-29T12:04:59;11.30;99.90
31263;DHT22;17892;52.080;9.006;2023-12-29T12:09:50;11.20;99.90
31263;DHT22;17892;52.080;9.006;2023-12-29T12:12:40;11.20;99.90
31263;DHT22;17892;52.080;9.006;2023-12-29T12:17:55;11.10;99.90
31263;DHT22;17892;52.080;9.006;2023-12-29T12:20:21;11.10;99.90
31263;DHT22;17892;52.080;9.006;2023-12-29T12:22:56;11.00;99.90
31263;DHT22;17892;52.080;9.006;2023-12-29T12:25:31;11.00;99.90
31263;DHT22;17892;52.080;9.006;2023-12-29T12:28:05;11.00;99.90
31263;DHT22;17892;52.080;9.006;2023-12-29T12:30:33;11.00;99.90
31263;DHT22;17892;52.080;9.006;2023-12-29T12:33:03;11.00;99.90
31263;DHT22;17892;52.080;9.006;2023-12-29T12:35:30;11.00;99.90
31263;DHT22;17892;52.080;9.006;2023-12-29T12:40:37;11.00;99.90
31263;DHT22;17892;52.080;9.006;2023-12-29T12:43:03;11.10;99.90
31263;DHT22;17892;52.080;9.006;2023-12-29T12:45:34;11.10;99.90
31263;DHT22;17892;52.080;9.006;2023-12-29T12:48:13;11.10;99.90
31263;DHT22;17892;52.080;9.006;2023-12-29T12:50:49;11.10;99.90
31263;DHT22;17892;52.080;9.006;2023-12-29T12:53:15;11.10;99.90
31263;DHT22;17892;52.080;9.006;2023-12-29T12:55:48;11.20;99.90
31263;DHT22;17892;52.080;9.006;2023-12-29T12:58:19;11.20;99.90
31263;DHT22;17892;52.080;9.006;2023-12-29T13:00:46;11.20;99.90
31263;DHT22;17892;52.080;9.006;2023-12-29T13:03:13;11.20;99.90
31263;DHT22;17892;52.080;9.006;2023-12-29T13:05:39;11.20;99.90
31263;DHT22;17892;52.080;9.006;2023-12-29T13:08:05;11.20;99.90
31263;DHT22;17892;52.080;9.006;2023-12-29T13:10:31;11.30;99.90
31263;DHT22;17892;52.080;9.006;2023-12-29T13:12:57;11.30;99.90
31263;DHT22;17892;52.080;9.006;2023-12-29T13:15:23;11.30;99.90
31263;DHT22;17892;52.080;9.006;2023-12-29T13:17:53;11.40;99.90
31263;DHT22;17892;52.080;9.006;2023-12-29T13:20:19;11.50;99.90
31263;DHT22;17892;52.080;9.006;2023-12-29T13:22:51;11.50;99.90
31263;DHT22;17892;52.080;9.006;2023-12-29T13:25:25;11.50;99.90
31263;DHT22;17892;52.080;9.006;2023-12-29T13:27:53;11.60;99.90
31263;DHT22;17892;52.080;9.006;2023-12-29T13:30:19;11.60;99.90
31263;DHT22;17892;52.080;9.006;2023-12-29T13:32:46;11.70;99.90
31263;DHT22;17892;52.080;9.006;2023-12-29T13:35:25;11.70;99.90
31263;DHT22;17892;52.080;9.006;2023-12-29T13:38:07;11.70;99.90
31263;DHT22;17892;52.080;9.006;2023-12-29T13:40:42;11.80;99.90
31263;DHT22;17892;52.080;9.006;2023-12-29T13:43:11;11.80;99.90
31263;DHT22;17892;52.080;9.006;2023-12-29T13:45:39;11.80;99.90
31263;DHT22;17892;52.080;9.006;2023-12-29T13:48:06;11.80;99.90
31263;DHT22;17892;52.080;9.006;2023-12-29T13:50:33;11.90;99.90
31263;DHT22;17892;52.080;9.006;2023-12-29T13:52:59;11.90;99.90
31263;DHT22;17892;52.080;9.006;2023-12-29T13:55:25;11.90;99.90
31263;DHT22;17892;52.080;9.006;2023-12-29T13:57:51;11.90;99.90
31263;DHT22;17892;52.080;9.006;2023-12-29T14:00:19;11.90;99.90
31263;DHT22;17892;52.080;9.006;2023-12-29T14:05:43;12.00;99.90
31263;DHT22;17892;52.080;9.006;2023-12-29T14:08:31;12.00;99.90
31263;DHT22;17892;52.080;9.006;2023-12-29T14:10:59;12.00;99.90
31263;DHT22;17892;52.080;9.006;2023-12-29T14:13:25;12.10;99.90
31263;DHT22;17892;52.080;9.006;2023-12-29T14:15:51;12.00;99.90
31263;DHT22;17892;52.080;9.006;2023-12-29T14:21:29;12.10;99.90
31263;DHT22;17892;52.080;9.006;2023-12-29T14:24:13;12.10;99.90
31263;DHT22;17892;52.080;9.006;2023-12-29T14:29:18;12.10;99.90
31263;DHT22;17892;52.080;9.006;2023-12-29T14:31:44;12.00;99.90
31263;DHT22;17892;52.080;9.006;2023-12-29T14:34:11;12.00;99.90
31263;DHT22;17892;52.080;9.006;2023-12-29T14:36:41;12.00;99.90
31263;DHT22;17892;52.080;9.006;2023-12-29T14:39:07;12.00;99.90
31263;DHT22;17892;52.080;9.006;2023-12-29T14:41:35;12.00;99.90
31263;DHT22;17892;52.080;9.006;2023-12-29T14:44:01;12.00;99.90
31263;DHT22;17892;52.080;9.006;2023-12-29T14:46:27;12.00;99.90
31263;DHT22;17892;52.080;9.006;2023-12-29T14:48:54;12.00;99.90
31263;DHT22;17892;52.080;9.006;2023-12-29T14:51:22;12.00;99.90
31263;DHT22;17892;52.080;9.006;2023-12-29T14:53:48;12.00;99.90
31263;DHT22;17892;52.080;9.006;2023-12-29T14:56:15;12.00;99.90
31263;DHT22;17892;52.080;9.006;2023-12-29T14:58:42;12.10;99.90
31263;DHT22;17892;52.080;9.006;2023-12-29T15:01:08;12.00;99.90
31263;DHT22;17892;52.080;9.006;2023-12-29T15:03:34;12.00;99.90
31263;DHT22;17892;52.080;9.006;2023-12-29T15:06:01;12.00;99.90
31263;DHT22;17892;52.080;9.006;2023-12-29T15:08:26;12.00;99.90
31263;DHT22;17892;52.080;9.006;2023-12-29T15:10:56;12.00;99.90
31263;DHT22;17892;52.080;9.006;2023-12-29T15:13:23;11.90;99.90
31263;DHT22;17892;52.080;9.006;2023-12-29T15:15:50;11.90;99.90
31263;DHT22;17892;52.080;9.006;2023-12-29T15:18:16;11.90;99.90
31263;DHT22;17892;52.080;9.006;2023-12-29T15:20:42;11.80;99.90
31263;DHT22;17892;52.080;9.006;2023-12-29T15:23:08;11.80;99.90
31263;DHT22;17892;52.080;9.006;2023-12-29T15:25:33;11.70;99.90
31263;DHT22;17892;52.080;9.006;2023-12-29T15:27:59;11.60;99.90
31263;DHT22;17892;52.080;9.006;2023-12-29T15:30:25;11.60;99.90
31263;DHT22;17892;52.080;9.006;2023-12-29T15:32:51;11.50;99.90
31263;DHT22;17892;52.080;9.006;2023-12-29T15:35:16;11.50;99.90
31263;DHT22;17892;52.080;9.006;2023-12-29T15:37:42;11.40;99.90
31263;DHT22;17892;52.080;9.006;2023-12-29T15:40:08;11.30;99.90
31263;DHT22;17892;52.080;9.006;2023-12-29T15:42:34;11.30;99.90
31263;DHT22;17892;52.080;9.006;2023-12-29T15:44:59;11.30;99.90
31263;DHT22;17892;52.080;9.006;2023-12-29T15:47:25;11.30;99.90
31263;DHT22;17892;52.080;9.006;2023-12-29T15:49:51;11.20;99.90
31263;DHT22;17892;52.080;9.006;2023-12-29T15:52:17;11.20;99.90
31263;DHT22;17892;52.080;9.006;2023-12-29T15:54:43;11.20;99.90